createdAt,value
2023-05-26T00:01:47.590Z,78.61
2023-05-26T00:04:18.406Z,78.41
2023-05-26T00:06:47.339Z,78.51
2023-05-26T00:09:15.197Z,78.15
2023-05-26T00:11:42.248Z,78.43
2023-05-26T00:14:11.337Z,77.24
2023-05-26T00:16:38.321Z,77.42
2023-05-26T00:19:08.642Z,77.40
2023-05-26T00:21:39.228Z,77.69
2023-05-26T00:24:06.740Z,77.70
2023-05-26T00:26:33.689Z,77.96
2023-05-26T00:29:01.158Z,77.80
2023-05-26T00:31:28.791Z,77.95
2023-05-26T00:33:55.675Z,78.25
2023-05-26T00:36:22.561Z,78.05
2023-05-26T00:38:49.426Z,77.58
2023-05-26T00:41:16.319Z,77.76
2023-05-26T00:43:43.278Z,77.51
2023-05-26T00:46:10.078Z,77.46
2023-05-26T00:48:36.864Z,77.53
2023-05-26T00:51:04.059Z,77.63
2023-05-26T00:53:30.998Z,77.69
2023-05-26T00:55:57.900Z,77.71
2023-05-26T00:58:25.644Z,77.53
2023-05-26T01:00:52.630Z,77.49
2023-05-26T01:03:19.574Z,77.97
2023-05-26T01:05:47.033Z,77.44
2023-05-26T01:08:14.048Z,77.63
2023-05-26T01:10:41.226Z,77.63
2023-05-26T01:13:13.066Z,78.07
2023-05-26T01:15:47.958Z,78.16
2023-05-26T01:18:42.428Z,78.14
2023-05-26T01:21:15.072Z,78.80
2023-05-26T01:24:04.105Z,78.57
2023-05-26T01:27:05.446Z,78.42
2023-05-26T01:29:36.968Z,78.30
2023-05-26T01:32:08.781Z,78.67
2023-05-26T01:34:35.852Z,78.87
2023-05-26T01:37:02.964Z,78.91
2023-05-26T01:39:30.266Z,79.49
2023-05-26T01:42:03.079Z,78.99
2023-05-26T01:44:52.048Z,78.98
2023-05-26T01:47:20.649Z,79.59
2023-05-26T01:49:49.156Z,79.36
2023-05-26T01:52:18.988Z,79.68
2023-05-26T01:54:49.689Z,79.43
2023-05-26T01:57:17.511Z,79.31
2023-05-26T01:59:44.922Z,79.30
2023-05-26T02:02:11.909Z,79.39
2023-05-26T02:04:39.040Z,79.35
2023-05-26T02:07:06.899Z,79.94
2023-05-26T02:09:34.574Z,79.59
2023-05-26T02:12:02.907Z,79.36
2023-05-26T02:14:30.053Z,79.17
2023-05-26T02:16:56.820Z,79.41
2023-05-26T02:19:24.419Z,79.39
2023-05-26T02:21:52.780Z,79.62
2023-05-26T02:24:19.846Z,79.37
2023-05-26T02:26:46.648Z,79.41
2023-05-26T02:29:14.557Z,79.41
2023-05-26T02:31:43.059Z,79.42
2023-05-26T02:34:11.813Z,79.49
2023-05-26T02:36:38.811Z,79.82
2023-05-26T02:39:05.653Z,80.23
2023-05-26T02:41:32.516Z,80.05
2023-05-26T02:43:59.303Z,79.88
2023-05-26T02:46:30.269Z,79.97
2023-05-26T02:48:58.203Z,80.77
2023-05-26T02:51:25.072Z,80.22
2023-05-26T02:53:52.000Z,80.19
2023-05-26T02:56:18.943Z,80.00
2023-05-26T02:58:45.716Z,79.93
2023-05-26T03:01:13.003Z,79.71
2023-05-26T03:03:40.178Z,79.59
2023-05-26T03:06:07.379Z,79.98
2023-05-26T03:08:34.710Z,79.87
2023-05-26T03:11:09.198Z,80.14
2023-05-26T03:13:37.186Z,79.92
2023-05-26T03:16:04.179Z,79.43
2023-05-26T03:18:33.539Z,79.51
2023-05-26T03:21:00.605Z,79.66
2023-05-26T03:23:27.452Z,79.63
2023-05-26T03:25:54.337Z,79.02
2023-05-26T03:28:22.138Z,78.91
2023-05-26T03:30:48.966Z,78.85
2023-05-26T03:33:15.881Z,78.83
2023-05-26T03:35:42.754Z,78.60
2023-05-26T03:38:09.678Z,78.48
2023-05-26T03:40:39.419Z,78.02
2023-05-26T03:43:06.513Z,78.27
2023-05-26T03:45:42.257Z,78.64
2023-05-26T03:48:13.910Z,78.18
2023-05-26T03:50:44.933Z,78.11
2023-05-26T03:53:12.136Z,77.82
2023-05-26T03:55:39.151Z,77.56
2023-05-26T03:58:06.233Z,77.89
2023-05-26T04:00:33.503Z,77.66
2023-05-26T04:03:01.337Z,77.66
2023-05-26T04:05:28.449Z,77.74
2023-05-26T04:07:55.380Z,77.97
2023-05-26T04:10:22.199Z,77.79
2023-05-26T04:12:49.188Z,77.93
2023-05-26T04:15:16.103Z,78.16
2023-05-26T04:17:45.478Z,77.98
2023-05-26T04:20:12.680Z,78.16
2023-05-26T04:22:40.410Z,78.22
2023-05-26T04:25:08.521Z,78.44
2023-05-26T04:27:48.353Z,77.82
2023-05-26T04:30:40.334Z,77.93
2023-05-26T04:33:40.679Z,78.26
2023-05-26T04:36:26.291Z,77.85
2023-05-26T04:38:56.050Z,78.17
2023-05-26T04:41:23.063Z,78.01
2023-05-26T04:43:49.883Z,77.67
2023-05-26T04:46:17.744Z,77.25
2023-05-26T04:48:45.210Z,77.24
2023-05-26T04:51:12.243Z,77.29
2023-05-26T04:53:39.252Z,77.75
2023-05-26T04:56:07.831Z,77.57
2023-05-26T04:58:40.932Z,77.84
2023-05-26T05:01:09.248Z,77.65
2023-05-26T05:03:51.270Z,77.87
2023-05-26T05:06:23.977Z,83.73
2023-05-26T05:08:51.004Z,78.53
2023-05-26T05:11:18.180Z,79.98
2023-05-26T05:13:45.451Z,78.80
2023-05-26T05:16:13.434Z,78.43
2023-05-26T05:18:40.375Z,78.18
2023-05-26T05:21:07.779Z,79.98
2023-05-26T05:23:35.581Z,78.23
2023-05-26T05:26:04.495Z,79.00
2023-05-26T05:28:33.007Z,77.25
2023-05-26T05:31:10.858Z,76.29
2023-05-26T05:33:40.103Z,76.30
2023-05-26T05:36:07.305Z,76.16
2023-05-26T05:38:34.150Z,75.90
2023-05-26T05:41:00.986Z,75.84
2023-05-26T05:43:30.052Z,76.05
2023-05-26T05:45:57.592Z,75.72
2023-05-26T05:48:40.965Z,75.32
2023-05-26T05:51:10.714Z,76.73
2023-05-26T05:53:37.587Z,75.63
2023-05-26T05:56:05.078Z,76.03
2023-05-26T05:58:32.440Z,76.32
2023-05-26T06:00:59.496Z,75.87
2023-05-26T06:03:26.740Z,75.77
2023-05-26T06:05:53.780Z,75.80
2023-05-26T06:08:20.740Z,75.82
2023-05-26T06:10:47.763Z,75.95
2023-05-26T06:13:14.895Z,76.19
2023-05-26T06:15:42.011Z,76.03
2023-05-26T06:18:09.025Z,76.14
2023-05-26T06:20:36.026Z,75.95
2023-05-26T06:23:02.898Z,75.40
2023-05-26T06:25:30.093Z,75.12
2023-05-26T06:27:57.543Z,74.96
2023-05-26T06:30:25.394Z,74.66
2023-05-26T06:33:02.670Z,74.54
2023-05-26T06:35:29.647Z,74.27
2023-05-26T06:37:56.999Z,73.63
2023-05-26T06:40:23.866Z,73.51
2023-05-26T06:42:51.228Z,73.61
2023-05-26T06:45:18.537Z,72.91
2023-05-26T06:47:49.186Z,72.87
2023-05-26T06:50:17.196Z,72.52
2023-05-26T06:52:46.080Z,71.92
2023-05-26T06:55:13.005Z,71.84
2023-05-26T06:57:39.918Z,71.53
2023-05-26T07:00:08.177Z,71.31
2023-05-26T07:02:36.407Z,70.74
2023-05-26T07:05:21.506Z,70.52
2023-05-26T07:07:48.501Z,70.48
2023-05-26T07:10:16.454Z,70.15
2023-05-26T07:12:43.340Z,69.55
2023-05-26T07:15:27.198Z,69.19
2023-05-26T07:17:54.097Z,69.06
2023-05-26T07:20:21.120Z,68.31
2023-05-26T07:22:49.268Z,67.94
2023-05-26T07:25:21.153Z,67.71
2023-05-26T07:27:49.808Z,67.75
2023-05-26T07:30:16.861Z,67.62
2023-05-26T07:33:06.897Z,67.51
2023-05-26T07:35:34.022Z,67.16
2023-05-26T07:38:04.098Z,66.83
2023-05-26T07:40:35.707Z,66.53
2023-05-26T07:43:04.172Z,66.61
2023-05-26T07:45:31.538Z,66.18
2023-05-26T07:47:58.497Z,66.57
2023-05-26T07:50:25.447Z,66.48
2023-05-26T07:52:52.170Z,66.05
2023-05-26T07:55:19.042Z,65.88
2023-05-26T07:57:45.946Z,65.76
2023-05-26T08:00:14.877Z,67.22
2023-05-26T08:02:42.998Z,67.69
2023-05-26T08:05:09.962Z,68.40
2023-05-26T08:07:36.830Z,67.80
2023-05-26T08:10:04.674Z,68.29
2023-05-26T08:12:31.753Z,68.22
2023-05-26T08:14:58.784Z,68.08
2023-05-26T08:17:25.710Z,67.81
2023-05-26T08:19:52.539Z,68.23
2023-05-26T08:22:19.404Z,68.49
2023-05-26T08:24:46.374Z,69.04
2023-05-26T08:27:13.382Z,68.63
2023-05-26T08:29:40.426Z,69.01
2023-05-26T08:32:07.315Z,69.50
2023-05-26T08:34:34.171Z,68.91
2023-05-26T08:37:01.030Z,69.62
2023-05-26T08:39:27.851Z,69.51
2023-05-26T08:42:00.672Z,69.72
2023-05-26T08:44:27.750Z,69.29
2023-05-26T08:46:58.660Z,69.95
2023-05-26T08:49:26.022Z,70.26
2023-05-26T08:52:03.622Z,70.69
2023-05-26T08:54:30.548Z,70.68
2023-05-26T08:56:58.952Z,70.70
2023-05-26T08:59:29.026Z,70.38
2023-05-26T09:01:57.596Z,69.93
2023-05-26T09:04:25.980Z,69.74
2023-05-26T09:07:09.357Z,69.76
2023-05-26T09:09:40.006Z,69.24
2023-05-26T09:12:11.637Z,68.15
2023-05-26T09:14:39.763Z,68.98
2023-05-26T09:17:07.313Z,68.75
2023-05-26T09:19:34.807Z,68.72
2023-05-26T09:22:10.509Z,69.39
2023-05-26T09:25:03.669Z,68.63
2023-05-26T09:27:30.692Z,68.58
2023-05-26T09:30:01.873Z,68.23
2023-05-26T09:32:30.288Z,68.58
2023-05-26T09:35:00.099Z,68.31
2023-05-26T09:37:32.139Z,67.63
2023-05-26T09:40:12.655Z,67.69
2023-05-26T09:42:46.855Z,67.04
2023-05-26T09:45:13.748Z,66.32
2023-05-26T09:47:40.787Z,65.88
2023-05-26T09:50:08.410Z,64.83
2023-05-26T09:52:36.051Z,64.79
2023-05-26T09:55:04.330Z,64.66
2023-05-26T09:57:32.076Z,64.01
2023-05-26T10:00:02.362Z,63.99
2023-05-26T10:02:35.222Z,63.76
2023-05-26T10:05:02.825Z,63.85
2023-05-26T10:07:31.348Z,63.77
2023-05-26T10:10:03.198Z,63.42
2023-05-26T10:12:33.882Z,62.91
2023-05-26T10:15:02.369Z,62.30
2023-05-26T10:17:30.189Z,62.75
2023-05-26T10:19:58.907Z,63.09
2023-05-26T10:22:29.380Z,63.92
2023-05-26T10:25:01.468Z,63.08
2023-05-26T10:28:05.531Z,63.64
2023-05-26T10:30:33.372Z,63.08
2023-05-26T10:33:11.718Z,62.87
2023-05-26T10:35:39.466Z,62.89
2023-05-26T10:38:06.995Z,63.04
2023-05-26T10:40:34.241Z,64.09
2023-05-26T10:43:22.620Z,63.55
2023-05-26T10:46:04.015Z,63.38
2023-05-26T10:48:40.087Z,63.06
2023-05-26T10:51:15.720Z,63.81
2023-05-26T10:53:45.650Z,64.46
2023-05-26T10:56:16.157Z,65.26
2023-05-26T10:58:46.861Z,65.15
2023-05-26T11:01:18.310Z,65.91
2023-05-26T11:03:48.377Z,66.45
2023-05-26T11:06:20.015Z,65.96
2023-05-26T11:08:49.661Z,66.15
2023-05-26T11:11:30.858Z,66.75
2023-05-26T11:14:07.553Z,66.28
2023-05-26T11:16:39.637Z,65.52
2023-05-26T11:19:08.533Z,66.26
2023-05-26T11:21:36.652Z,66.01
2023-05-26T11:24:06.356Z,66.33
2023-05-26T11:26:34.826Z,66.75
2023-05-26T11:29:06.028Z,66.21
2023-05-26T11:31:33.583Z,66.20
2023-05-26T11:34:03.873Z,66.57
2023-05-26T11:36:31.073Z,66.67
2023-05-26T11:39:02.717Z,66.51
2023-05-26T11:41:30.868Z,66.72
2023-05-26T11:43:58.432Z,66.38
2023-05-26T11:46:31.232Z,66.03
2023-05-26T11:48:58.463Z,65.93
2023-05-26T11:51:25.338Z,65.16
2023-05-26T11:53:59.656Z,65.32
2023-05-26T11:56:34.580Z,65.44
2023-05-26T11:59:02.120Z,65.37
2023-05-26T12:01:29.548Z,66.48
2023-05-26T12:03:58.977Z,66.42
2023-05-26T12:06:28.140Z,66.31
2023-05-26T12:09:07.381Z,65.89
2023-05-26T12:11:36.725Z,66.15
2023-05-26T12:14:04.607Z,65.54
2023-05-26T12:16:48.718Z,66.27
2023-05-26T12:19:20.205Z,65.34
2023-05-26T12:21:48.420Z,65.14
2023-05-26T12:24:38.666Z,64.66
2023-05-26T12:27:09.772Z,64.75
2023-05-26T12:29:40.456Z,64.69
2023-05-26T12:32:08.684Z,64.20
2023-05-26T12:34:43.100Z,65.24
2023-05-26T12:37:10.514Z,65.10
2023-05-26T12:39:37.457Z,64.24
2023-05-26T12:42:04.864Z,64.50
2023-05-26T12:44:31.776Z,64.40
2023-05-26T12:46:58.641Z,64.29
2023-05-26T12:49:26.084Z,64.06
2023-05-26T12:51:53.058Z,63.85
2023-05-26T12:54:21.136Z,63.96
2023-05-26T12:56:48.365Z,63.73
2023-05-26T12:59:20.761Z,62.97
2023-05-26T13:01:49.031Z,63.21
2023-05-26T13:04:17.667Z,63.22
2023-05-26T13:06:44.805Z,63.07
2023-05-26T13:09:12.822Z,62.96
2023-05-26T13:11:40.096Z,63.31
2023-05-26T13:14:07.198Z,63.28
2023-05-26T13:16:34.167Z,63.42
2023-05-26T13:19:01.366Z,62.87
2023-05-26T13:21:28.260Z,63.55
2023-05-26T13:23:57.148Z,64.08
2023-05-26T13:26:25.064Z,63.55
2023-05-26T13:28:52.557Z,63.27
2023-05-26T13:31:21.181Z,63.55
2023-05-26T13:33:48.036Z,63.67
2023-05-26T13:36:14.868Z,63.37
2023-05-26T13:38:42.015Z,63.04
2023-05-26T13:41:10.721Z,63.36
2023-05-26T13:43:38.205Z,63.12
2023-05-26T13:46:05.789Z,62.86
2023-05-26T13:48:33.306Z,63.36
2023-05-26T13:51:00.173Z,62.99
2023-05-26T13:53:27.086Z,62.61
2023-05-26T13:55:54.703Z,63.05
2023-05-26T13:58:21.516Z,62.29
2023-05-26T14:00:48.348Z,62.43
2023-05-26T14:03:15.271Z,62.52
2023-05-26T14:05:42.710Z,62.75
2023-05-26T14:08:09.548Z,62.84
2023-05-26T14:10:37.457Z,62.69
2023-05-26T14:13:04.551Z,62.61
2023-05-26T14:15:31.423Z,62.21
2023-05-26T14:21:43.774Z,62.10
2023-05-26T14:23:15.744Z,61.54
2023-05-26T14:25:42.749Z,61.57
2023-05-26T14:28:09.819Z,61.64
2023-05-26T14:30:36.779Z,61.40
2023-05-26T14:33:06.442Z,61.85
2023-05-26T14:35:33.460Z,61.43
2023-05-26T14:38:00.471Z,62.52
2023-05-26T14:40:30.837Z,61.78
2023-05-26T14:42:58.101Z,61.57
2023-05-26T14:45:24.995Z,61.54
2023-05-26T14:47:51.846Z,61.82
2023-05-26T14:50:20.868Z,61.19
2023-05-26T14:52:49.244Z,63.13
2023-05-26T14:55:17.939Z,62.94
2023-05-26T14:57:44.844Z,62.10
2023-05-26T15:00:12.274Z,61.26
2023-05-26T15:02:39.197Z,61.57
2023-05-26T15:05:06.669Z,61.57
2023-05-26T15:07:33.876Z,61.63
2023-05-26T15:10:00.704Z,60.78
2023-05-26T15:12:27.620Z,60.60
2023-05-26T15:14:54.417Z,61.29
2023-05-26T15:17:21.235Z,59.24
2023-05-26T15:19:49.517Z,60.17
2023-05-26T15:22:16.687Z,59.71
2023-05-26T15:24:43.686Z,59.73
2023-05-26T15:27:11.262Z,59.63
2023-05-26T15:29:38.884Z,59.53
2023-05-26T15:32:06.451Z,59.29
2023-05-26T15:34:33.330Z,58.97
2023-05-26T15:37:00.151Z,59.21
2023-05-26T15:39:26.996Z,60.59
2023-05-26T15:41:53.917Z,61.20
2023-05-26T15:44:20.904Z,61.25
2023-05-26T15:46:47.858Z,61.26
2023-05-26T15:49:14.855Z,61.06
2023-05-26T15:51:41.788Z,61.74
2023-05-26T15:54:08.920Z,61.81
2023-05-26T15:56:36.159Z,61.84
2023-05-26T15:59:03.345Z,62.23
2023-05-26T16:01:30.393Z,62.40
2023-05-26T16:03:57.578Z,62.76
2023-05-26T16:06:24.571Z,62.50
2023-05-26T16:08:51.476Z,62.97
2023-05-26T16:11:18.402Z,62.49
2023-05-26T16:13:45.851Z,61.86
2023-05-26T16:16:13.298Z,62.46
2023-05-26T16:18:40.162Z,62.58
2023-05-26T16:21:07.496Z,62.01
2023-05-26T16:23:34.421Z,62.07
2023-05-26T16:26:02.527Z,61.87
2023-05-26T16:28:29.465Z,61.77
2023-05-26T16:30:57.155Z,61.71
2023-05-26T16:33:24.651Z,62.04
2023-05-26T16:35:53.489Z,61.71
2023-05-26T16:38:22.049Z,61.26
2023-05-26T16:40:49.523Z,61.52
2023-05-26T16:43:23.668Z,62.08
2023-05-26T16:46:03.127Z,61.60
2023-05-26T16:48:30.052Z,61.75
2023-05-26T16:50:56.956Z,61.12
2023-05-26T16:53:23.733Z,61.20
2023-05-26T16:55:50.960Z,61.42
2023-05-26T16:58:17.757Z,60.89
2023-05-26T17:00:45.051Z,62.00
2023-05-26T17:03:12.438Z,61.51
2023-05-26T17:05:41.559Z,62.14
2023-05-26T17:08:08.462Z,62.63
2023-05-26T17:10:35.292Z,62.92
2023-05-26T17:13:03.379Z,62.98
2023-05-26T17:15:30.261Z,63.40
2023-05-26T17:17:57.112Z,62.93
2023-05-26T17:20:24.204Z,62.51
2023-05-26T17:22:51.010Z,62.67
2023-05-26T17:25:18.093Z,63.16
2023-05-26T17:27:44.895Z,63.26
2023-05-26T17:30:12.158Z,64.36
2023-05-26T17:32:39.051Z,64.18
2023-05-26T17:35:06.481Z,64.16
2023-05-26T17:37:33.385Z,64.40
2023-05-26T17:40:00.390Z,65.45
2023-05-26T17:42:27.222Z,65.44
2023-05-26T17:44:54.044Z,65.59
2023-05-26T17:47:24.136Z,66.28
2023-05-26T17:49:50.920Z,66.27
2023-05-26T17:52:17.662Z,66.35
2023-05-26T17:54:44.509Z,66.39
2023-05-26T17:57:11.251Z,66.49
2023-05-26T17:59:38.127Z,66.32
2023-05-26T18:02:05.272Z,66.74
2023-05-26T18:04:32.110Z,66.97
2023-05-26T18:06:59.133Z,67.81
2023-05-26T18:09:26.048Z,68.06
2023-05-26T18:11:52.939Z,67.71
2023-05-26T18:14:19.814Z,68.44
2023-05-26T18:16:47.460Z,68.15
2023-05-26T18:19:14.952Z,68.58
2023-05-26T18:21:41.716Z,68.80
2023-05-26T18:24:08.507Z,69.07
2023-05-26T18:26:35.448Z,69.28
2023-05-26T18:29:03.437Z,70.16
2023-05-26T18:31:30.481Z,70.24
2023-05-26T18:34:00.445Z,69.99
2023-05-26T18:36:31.213Z,70.21
2023-05-26T18:38:58.023Z,69.92
2023-05-26T18:41:25.209Z,69.86
2023-05-26T18:43:54.838Z,70.22
2023-05-26T18:46:21.683Z,70.10
2023-05-26T18:48:48.668Z,70.39
2023-05-26T18:51:17.565Z,70.67
2023-05-26T18:53:44.558Z,70.50
2023-05-26T18:56:12.780Z,70.37
2023-05-26T18:58:39.689Z,70.43
2023-05-26T19:01:06.502Z,70.71
2023-05-26T19:03:35.739Z,71.71
2023-05-26T19:06:02.828Z,72.20
2023-05-26T19:08:29.669Z,72.08
2023-05-26T19:10:56.914Z,72.02
2023-05-26T19:13:24.031Z,72.17
2023-05-26T19:15:50.965Z,72.26
2023-05-26T19:18:18.302Z,72.13
2023-05-26T19:20:45.205Z,71.97
2023-05-26T19:23:12.033Z,72.32
2023-05-26T19:25:39.281Z,72.27
2023-05-26T19:28:06.093Z,72.49
2023-05-26T19:30:33.016Z,72.84
2023-05-26T19:33:00.065Z,73.14
2023-05-26T19:35:26.977Z,72.89
2023-05-26T19:37:53.850Z,73.41
2023-05-26T19:40:20.751Z,73.87
2023-05-26T19:42:47.590Z,74.16
2023-05-26T19:45:14.534Z,74.47
2023-05-26T19:47:41.404Z,74.33
2023-05-26T19:50:08.751Z,74.36
2023-05-26T19:52:35.484Z,74.35
2023-05-26T19:55:02.333Z,74.36
2023-05-26T19:57:31.617Z,74.54
2023-05-26T19:59:58.612Z,74.81
2023-05-26T20:02:26.207Z,75.18
2023-05-26T20:04:53.506Z,75.49
2023-05-26T20:07:20.450Z,75.65
2023-05-26T20:09:47.908Z,75.62
2023-05-26T20:12:14.703Z,76.15
2023-05-26T20:14:42.418Z,75.51
2023-05-26T20:17:09.410Z,75.96
2023-05-26T20:19:47.125Z,76.03
2023-05-26T20:22:18.440Z,75.67
2023-05-26T20:24:46.281Z,75.92
2023-05-26T20:27:13.231Z,76.22
2023-05-26T20:29:40.178Z,76.18
2023-05-26T20:32:07.388Z,76.24
2023-05-26T20:34:34.254Z,76.18
2023-05-26T20:37:01.436Z,76.15
2023-05-26T20:39:29.339Z,76.30
2023-05-26T20:41:56.703Z,76.13
2023-05-26T20:44:23.591Z,76.07
2023-05-26T20:46:50.736Z,75.88
2023-05-26T20:49:17.673Z,76.08
2023-05-26T20:51:45.089Z,75.84
2023-05-26T20:54:12.005Z,75.56
2023-05-26T20:56:38.871Z,75.80
2023-05-26T20:59:06.150Z,76.15
2023-05-26T21:01:33.046Z,75.84
2023-05-26T21:04:00.571Z,76.29
2023-05-26T21:06:27.491Z,76.77
2023-05-26T21:08:54.896Z,76.65
2023-05-26T21:11:22.134Z,78.17
2023-05-26T21:13:48.941Z,77.26
2023-05-26T21:16:15.941Z,77.23
2023-05-26T21:18:42.704Z,77.19
2023-05-26T21:21:09.822Z,77.16
2023-05-26T21:23:36.744Z,76.96
2023-05-26T21:26:03.927Z,76.82
2023-05-26T21:28:30.870Z,76.87
2023-05-26T21:30:57.687Z,77.26
2023-05-26T21:33:24.544Z,77.42
2023-05-26T21:35:51.524Z,77.46
2023-05-26T21:38:18.441Z,77.25
2023-05-26T21:40:45.344Z,76.77
2023-05-26T21:43:12.261Z,76.43
2023-05-26T21:45:39.177Z,75.82
2023-05-26T21:48:06.101Z,75.53
2023-05-26T21:50:32.965Z,75.27
2023-05-26T21:52:59.788Z,74.28
2023-05-26T21:55:26.587Z,74.23
2023-05-26T21:57:53.350Z,74.55
2023-05-26T22:00:20.358Z,73.63
2023-05-26T22:02:47.250Z,72.60
2023-05-26T22:05:14.437Z,73.17
2023-05-26T22:07:41.336Z,72.11
2023-05-26T22:10:09.226Z,71.98
2023-05-26T22:12:36.462Z,72.75
2023-05-26T22:15:07.315Z,72.33
2023-05-26T22:17:35.008Z,72.96
2023-05-26T22:20:02.992Z,72.31
2023-05-26T22:22:29.814Z,72.36
2023-05-26T22:24:56.600Z,71.52
2023-05-26T22:27:41.996Z,71.99
2023-05-26T22:30:09.318Z,71.98
2023-05-26T22:32:36.305Z,72.04
2023-05-26T22:35:03.489Z,71.88
2023-05-26T22:37:30.358Z,72.48
2023-05-26T22:39:57.314Z,72.59
2023-05-26T22:42:24.279Z,72.40
2023-05-26T22:44:51.320Z,72.95
2023-05-26T22:47:18.872Z,72.78
2023-05-26T22:49:48.369Z,72.69
2023-05-26T22:52:15.798Z,72.82
2023-05-26T22:54:42.773Z,72.55
2023-05-26T22:57:10.264Z,71.78
2023-05-26T22:59:37.199Z,71.31
2023-05-26T23:02:04.312Z,71.50
2023-05-26T23:04:31.413Z,71.13
2023-05-26T23:06:59.493Z,71.89
2023-05-26T23:09:30.630Z,71.84
2023-05-26T23:11:57.597Z,71.53
2023-05-26T23:14:24.512Z,72.57
2023-05-26T23:16:51.433Z,72.30
2023-05-26T23:19:18.698Z,72.76
2023-05-26T23:21:45.594Z,72.68
2023-05-26T23:24:12.568Z,72.68
2023-05-26T23:26:39.545Z,73.08
2023-05-26T23:29:06.464Z,72.89
2023-05-26T23:31:33.436Z,72.46
2023-05-26T23:34:00.397Z,73.02
2023-05-26T23:36:27.387Z,72.74
2023-05-26T23:38:54.342Z,72.04
2023-05-26T23:41:21.269Z,72.68
2023-05-26T23:43:48.224Z,71.46
2023-05-26T23:46:15.807Z,71.46
2023-05-26T23:48:42.892Z,70.86
2023-05-26T23:51:09.818Z,71.32
2023-05-26T23:53:36.743Z,71.22
2023-05-26T23:56:03.691Z,71.06
2023-05-26T23:58:30.593Z,70.99
